createdAt,value
2022-09-28T00:02:01.817Z,16.19
2022-09-28T00:04:01.786Z,16.16
2022-09-28T00:07:01.748Z,16.19
2022-09-28T00:09:01.740Z,16.19
2022-09-28T00:12:01.736Z,16.17
2022-09-28T00:14:01.746Z,16.15
2022-09-28T00:17:01.745Z,16.16
2022-09-28T00:20:01.780Z,16.16
2022-09-28T00:22:01.743Z,16.16
2022-09-28T00:24:01.754Z,16.12
2022-09-28T00:26:01.783Z,16.12
2022-09-28T00:29:01.776Z,16.11
2022-09-28T00:32:01.812Z,16.14
2022-09-28T00:34:01.746Z,16.12
2022-09-28T00:36:01.733Z,16.12
2022-09-28T00:39:01.764Z,16.14
2022-09-28T00:41:01.822Z,16.14
2022-09-28T00:44:01.739Z,16.12
2022-09-28T00:46:01.758Z,16.12
2022-09-28T00:49:02.233Z,16.14
2022-09-28T00:52:01.783Z,16.15
2022-09-28T00:54:02.022Z,16.14
2022-09-28T00:57:01.750Z,16.16
2022-09-28T00:59:01.784Z,16.17
2022-09-28T01:02:01.813Z,16.16
2022-09-28T01:05:01.777Z,16.16
2022-09-28T01:07:01.800Z,16.15
2022-09-28T01:10:01.747Z,16.12
2022-09-28T01:12:01.750Z,16.11
2022-09-28T01:14:01.842Z,16.11
2022-09-28T01:17:01.753Z,16.1
2022-09-28T01:20:01.768Z,16.03
2022-09-28T01:22:01.757Z,16.03
2022-09-28T01:24:01.803Z,16.01
2022-09-28T01:27:01.749Z,16.04
2022-09-28T01:29:01.759Z,16.04
2022-09-28T01:32:01.860Z,16.06
2022-09-28T01:34:01.801Z,16.07
2022-09-28T01:37:01.754Z,16.04
2022-09-28T01:40:01.799Z,16.06
2022-09-28T01:43:01.740Z,16.02
2022-09-28T01:45:01.762Z,16.03
2022-09-28T01:48:01.780Z,16.02
2022-09-28T01:51:01.781Z,16.04
2022-09-28T01:54:01.774Z,16.07
2022-09-28T01:57:01.811Z,16.07
2022-09-28T02:00:01.746Z,16.03
2022-09-28T02:02:01.816Z,16.03
2022-09-28T02:04:01.802Z,16.04
2022-09-28T02:06:01.781Z,16
2022-09-28T02:09:01.749Z,15.97
2022-09-28T02:11:01.751Z,15.97
2022-09-28T02:14:02.558Z,15.95
2022-09-28T02:17:01.774Z,15.94
2022-09-28T02:20:01.790Z,15.84
2022-09-28T02:22:01.783Z,15.81
2022-09-28T02:24:01.846Z,15.79
2022-09-28T02:27:01.774Z,15.66
2022-09-28T02:29:01.774Z,15.7
2022-09-28T02:31:01.769Z,15.75
2022-09-28T02:33:01.801Z,15.8
2022-09-28T02:36:01.777Z,15.74
2022-09-28T02:38:01.826Z,15.76
2022-09-28T02:41:01.816Z,15.78
2022-09-28T02:43:01.772Z,15.8
2022-09-28T02:45:01.779Z,15.85
2022-09-28T02:48:01.789Z,15.88
2022-09-28T02:50:01.792Z,15.91
2022-09-28T02:53:01.797Z,15.92
2022-09-28T02:56:01.783Z,15.94
2022-09-28T02:58:01.779Z,15.92
2022-09-28T03:01:01.821Z,15.91
2022-09-28T03:04:01.772Z,15.91
2022-09-28T03:06:01.772Z,15.92
2022-09-28T03:09:01.784Z,15.81
2022-09-28T03:11:01.790Z,15.81
2022-09-28T03:14:01.822Z,15.89
2022-09-28T03:17:01.765Z,15.82
2022-09-28T03:19:01.779Z,15.82
2022-09-28T03:22:01.778Z,15.81
2022-09-28T03:24:01.785Z,15.72
2022-09-28T03:26:01.805Z,15.61
2022-09-28T03:29:01.778Z,15.44
2022-09-28T03:31:01.809Z,15.38
2022-09-28T03:34:01.761Z,15.4
2022-09-28T03:36:01.796Z,15.44
2022-09-28T03:39:01.820Z,15.58
2022-09-28T03:42:01.770Z,15.65
2022-09-28T03:44:01.785Z,15.67
2022-09-28T03:47:01.757Z,15.6
2022-09-28T03:49:01.790Z,15.53
2022-09-28T03:51:01.778Z,15.45
2022-09-28T03:54:01.777Z,15.45
2022-09-28T03:57:01.801Z,15.52
2022-09-28T03:59:01.779Z,15.54
2022-09-28T04:02:01.926Z,15.54
2022-09-28T04:04:01.810Z,15.57
2022-09-28T04:07:01.781Z,15.54
2022-09-28T04:09:01.783Z,15.54
2022-09-28T04:11:01.822Z,15.54
2022-09-28T04:13:59.877Z,15.59
2022-09-28T04:16:00.070Z,15.58
2022-09-28T04:18:59.837Z,15.62
2022-09-28T04:21:00.280Z,15.61
2022-09-28T04:23:59.853Z,15.63
2022-09-28T04:25:59.955Z,15.61
2022-09-28T04:29:04.093Z,15.58
2022-09-28T04:31:00.273Z,15.58
2022-09-28T04:35:59.878Z,15.51
2022-09-28T04:38:00.752Z,15.51
2022-09-28T04:40:59.898Z,15.44
2022-09-28T04:43:00.577Z,15.43
2022-09-28T04:47:04.305Z,15.45
2022-09-28T04:49:59.869Z,15.47
2022-09-28T04:52:00.260Z,15.46
2022-09-28T04:55:00.132Z,15.47
2022-09-28T04:57:59.910Z,15.48
2022-09-28T05:00:00.293Z,15.48
2022-09-28T05:02:00.568Z,15.48
2022-09-28T05:05:00.414Z,15.49
2022-09-28T05:07:59.912Z,15.4
2022-09-28T05:11:00.354Z,15.39
2022-09-28T05:13:59.884Z,15.43
2022-09-28T05:16:03.143Z,15.46
2022-09-28T05:18:00.301Z,15.44
2022-09-28T05:20:59.875Z,15.38
2022-09-28T05:24:00.197Z,15.39
2022-09-28T05:26:59.967Z,15.31
2022-09-28T05:30:00.350Z,15.23
2022-09-28T05:32:59.875Z,15.29
2022-09-28T05:35:00.370Z,15.3
2022-09-28T05:38:00.551Z,15.32
2022-09-28T05:41:03.276Z,15.24
2022-09-28T05:42:59.882Z,15.26
2022-09-28T05:46:59.866Z,15.27
2022-09-28T05:48:59.971Z,15.2
2022-09-28T05:51:00.487Z,15.2
2022-09-28T05:54:04.782Z,15.24
2022-09-28T05:56:58.929Z,15.27
2022-09-28T05:58:59.876Z,15.28
2022-09-28T06:01:59.879Z,15.32
2022-09-28T06:04:00.484Z,15.3
2022-09-28T06:06:00.555Z,15.27
2022-09-28T06:10:00.316Z,15.29
2022-09-28T06:12:59.896Z,15.31
2022-09-28T06:15:00.454Z,15.28
2022-09-28T06:17:58.969Z,15.32
2022-09-28T06:19:59.942Z,15.33
2022-09-28T06:22:59.884Z,15.34
2022-09-28T06:25:00.458Z,15.34
2022-09-28T06:27:59.868Z,15.35
2022-09-28T06:30:00.680Z,15.35
2022-09-28T06:32:59.854Z,15.38
2022-09-28T06:35:02.983Z,15.39
2022-09-28T06:38:00.219Z,15.36
2022-09-28T06:40:59.974Z,15.34
2022-09-28T06:43:00.451Z,15.34
2022-09-28T06:46:00.717Z,15.35
2022-09-28T06:48:59.846Z,15.25
2022-09-28T06:50:59.867Z,15.22
2022-09-28T06:52:59.860Z,15.24
2022-09-28T06:55:00.566Z,15.27
2022-09-28T06:57:00.636Z,15.27
2022-09-28T07:00:00.075Z,15.26
2022-09-28T07:03:01.040Z,15.27
2022-09-28T07:05:59.957Z,15.22
2022-09-28T07:08:00.722Z,15.19
2022-09-28T07:11:00.198Z,15.23
2022-09-28T07:13:59.925Z,15.28
2022-09-28T07:17:10.562Z,15.32
2022-09-28T07:20:05.046Z,15.33
2022-09-28T07:23:59.940Z,15.3
2022-09-28T07:26:00.373Z,15.33
2022-09-28T07:28:59.870Z,15.35
2022-09-28T07:31:59.863Z,15.41
2022-09-28T07:34:00.377Z,15.43
2022-09-28T07:37:00.503Z,15.47
2022-09-28T07:39:00.725Z,15.48
2022-09-28T07:42:02.757Z,15.37
2022-09-28T07:44:59.904Z,15.26
2022-09-28T07:47:00.207Z,15.23
2022-09-28T07:49:59.923Z,15.25
2022-09-28T07:52:59.902Z,15.36
2022-09-28T07:55:03.403Z,15.36
2022-09-28T07:56:59.956Z,15.34
2022-09-28T07:59:00.463Z,15.32
2022-09-28T08:01:59.891Z,15.3
2022-09-28T08:03:59.879Z,15.34
2022-09-28T08:06:59.887Z,15.39
2022-09-28T08:08:59.902Z,15.31
2022-09-28T08:11:59.922Z,15.41
2022-09-28T08:16:59.913Z,15.48
2022-09-28T08:20:00.250Z,15.5
2022-09-28T08:21:59.873Z,15.49
2022-09-28T08:23:59.851Z,15.52
2022-09-28T08:26:00.446Z,15.56
2022-09-28T08:28:59.870Z,15.6
2022-09-28T08:32:01.614Z,15.52
2022-09-28T08:35:00.325Z,15.58
2022-09-28T08:38:59.906Z,15.6
2022-09-28T08:40:59.936Z,15.58
2022-09-28T08:42:59.903Z,15.58
2022-09-28T08:44:59.925Z,15.62
2022-09-28T08:46:59.963Z,15.62
2022-09-28T08:50:00.390Z,15.66
2022-09-28T08:52:59.974Z,15.74
2022-09-28T08:55:00.321Z,15.74
2022-09-28T08:57:59.988Z,15.75
2022-09-28T09:00:00.528Z,15.76
2022-09-28T09:03:00.095Z,15.8
2022-09-28T09:05:00.234Z,15.81
2022-09-28T09:07:59.925Z,15.89
2022-09-28T09:10:00.652Z,15.93
2022-09-28T09:12:59.944Z,15.95
2022-09-28T09:14:59.962Z,16
2022-09-28T09:17:59.889Z,16.03
2022-09-28T09:19:59.921Z,16.03
2022-09-28T09:22:00.308Z,16.1
2022-09-28T09:24:59.893Z,16.18
2022-09-28T09:27:00.298Z,16.2
2022-09-28T09:30:00.396Z,16.2
2022-09-28T09:33:00.662Z,16.12
2022-09-28T09:36:59.852Z,16.2
2022-09-28T09:39:00.263Z,16.24
2022-09-28T09:41:00.856Z,16.28
2022-09-28T09:43:59.913Z,16.34
2022-09-28T09:46:00.492Z,16.32
2022-09-28T09:48:59.888Z,16.26
2022-09-28T09:50:59.892Z,16.36
2022-09-28T09:53:00.206Z,16.43
2022-09-28T09:55:59.910Z,16.45
2022-09-28T09:58:59.880Z,16.45
2022-09-28T10:00:59.940Z,16.4
2022-09-28T10:02:59.992Z,16.37
2022-09-28T10:04:59.940Z,16.36
2022-09-28T10:06:59.928Z,16.29
2022-09-28T10:09:00.165Z,16.36
2022-09-28T10:11:00.337Z,16.42
2022-09-28T10:13:00.682Z,16.44
2022-09-28T10:15:59.893Z,16.49
2022-09-28T10:18:00.609Z,16.53
2022-09-28T10:21:00.585Z,16.49
2022-09-28T10:23:59.951Z,16.5
2022-09-28T10:26:01.794Z,16.46
2022-09-28T10:28:59.940Z,16.49
2022-09-28T10:31:59.002Z,16.52
2022-09-28T10:34:00.203Z,16.61
2022-09-28T10:36:59.928Z,16.69
2022-09-28T10:39:59.949Z,16.83
2022-09-28T10:42:58.992Z,16.95
2022-09-28T10:44:59.941Z,17.1
2022-09-28T10:47:00.534Z,17.18
2022-09-28T10:50:01.000Z,17.2
2022-09-28T10:52:00.346Z,17.23
2022-09-28T10:55:00.420Z,17.24
2022-09-28T10:57:59.924Z,17.28
2022-09-28T11:00:00.157Z,17.31
2022-09-28T11:02:59.975Z,17.39
2022-09-28T11:05:59.935Z,17.53
2022-09-28T11:09:00.548Z,17.66
2022-09-28T11:12:00.451Z,17.75
2022-09-28T11:14:58.983Z,17.83
2022-09-28T11:16:59.965Z,17.87
2022-09-28T11:18:59.960Z,17.96
2022-09-28T11:20:59.984Z,18.04
2022-09-28T11:24:00.388Z,18.2
2022-09-28T11:27:00.651Z,18.41
2022-09-28T11:29:59.984Z,18.57
2022-09-28T11:32:59.964Z,18.76
2022-09-28T11:36:00.346Z,18.95
2022-09-28T11:40:00.427Z,19.06
2022-09-28T11:42:00.540Z,19.15
2022-09-28T11:44:59.921Z,19.27
2022-09-28T11:48:01.067Z,19.35
2022-09-28T11:51:00.166Z,19.45
2022-09-28T11:53:59.930Z,19.51
2022-09-28T11:56:01.219Z,19.53
2022-09-28T11:59:00.389Z,19.54
2022-09-28T12:01:59.938Z,19.6
2022-09-28T12:05:01.001Z,19.6
2022-09-28T12:07:00.648Z,19.56
2022-09-28T12:10:00.264Z,19.45
2022-09-28T12:13:00.073Z,19.39
2022-09-28T12:16:23.230Z,19.33
2022-09-28T12:17:59.935Z,19.28
2022-09-28T12:20:00.527Z,19.27
2022-09-28T12:24:00.007Z,19.2
2022-09-28T12:27:00.985Z,19.29
2022-09-28T12:29:59.919Z,19.49
2022-09-28T12:31:59.927Z,19.62
2022-09-28T12:34:59.908Z,19.85
2022-09-28T12:37:00.112Z,19.94
2022-09-28T12:40:00.465Z,19.96
2022-09-28T12:42:00.352Z,19.95
2022-09-28T12:44:59.678Z,19.89
2022-09-28T12:47:00.000Z,19.9
2022-09-28T12:49:47.566Z,19.95
2022-09-28T12:52:00.577Z,20.14
2022-09-28T12:54:59.971Z,20.37
2022-09-28T12:57:00.351Z,20.59
2022-09-28T12:59:59.932Z,20.9
2022-09-28T13:03:00.408Z,21.24
2022-09-28T13:05:59.919Z,21.57
2022-09-28T13:08:00.780Z,21.79
2022-09-28T13:11:02.192Z,21.91
2022-09-28T13:13:00.567Z,21.92
2022-09-28T13:16:00.066Z,21.96
2022-09-28T13:18:59.939Z,22.02
2022-09-28T13:21:00.047Z,22.1
2022-09-28T13:24:08.987Z,22.11
2022-09-28T13:26:00.361Z,22.14
2022-09-28T13:28:00.467Z,22.15
2022-09-28T13:30:00.967Z,22.31
2022-09-28T13:33:00.655Z,22.43
2022-09-28T13:36:00.578Z,22.71
2022-09-28T13:38:00.636Z,22.8
2022-09-28T13:40:59.981Z,22.96
2022-09-28T13:42:59.935Z,23
2022-09-28T13:45:00.195Z,23.08
2022-09-28T13:48:00.029Z,23.1
2022-09-28T13:50:59.019Z,23.04
2022-09-28T13:53:00.564Z,23.15
2022-09-28T13:56:00.033Z,23.4
2022-09-28T13:58:59.940Z,23.48
2022-09-28T14:02:01.684Z,23.39
2022-09-28T14:03:59.974Z,23.21
2022-09-28T14:05:59.984Z,23.15
2022-09-28T14:08:00.545Z,23.11
2022-09-28T14:10:59.975Z,22.96
2022-09-28T14:13:59.973Z,22.81
2022-09-28T14:17:00.074Z,22.65
2022-09-28T14:20:00.534Z,22.43
2022-09-28T14:22:59.073Z,22.32
2022-09-28T14:24:59.947Z,22.38
2022-09-28T14:27:00.008Z,22.48
2022-09-28T14:29:59.981Z,22.59
2022-09-28T14:32:00.033Z,22.67
2022-09-28T14:34:59.002Z,22.8
2022-09-28T14:36:59.966Z,22.98
2022-09-28T14:39:00.478Z,23.17
2022-09-28T14:41:59.971Z,23.39
2022-09-28T14:45:03.334Z,23.28
2022-09-28T14:46:59.986Z,23.12
2022-09-28T14:50:00.556Z,22.91
2022-09-28T14:53:00.591Z,22.86
2022-09-28T14:56:00.335Z,22.91
2022-09-28T14:59:00.557Z,22.95
2022-09-28T15:01:59.992Z,22.8
2022-09-28T15:05:00.364Z,22.72
2022-09-28T15:07:00.326Z,22.64
2022-09-28T15:10:00.136Z,22.61
2022-09-28T15:12:59.983Z,22.59
2022-09-28T15:15:00.090Z,22.55
2022-09-28T15:17:00.697Z,22.48
2022-09-28T15:19:59.990Z,22.33
2022-09-28T15:22:00.053Z,22.21
2022-09-28T15:25:02.602Z,22.03
2022-09-28T15:27:59.981Z,21.86
2022-09-28T15:29:59.937Z,21.74
2022-09-28T15:32:00.813Z,21.47
2022-09-28T15:35:00.777Z,21.11
2022-09-28T15:37:59.977Z,21
2022-09-28T15:41:00.461Z,21.1
2022-09-28T15:43:59.967Z,21.29
2022-09-28T15:46:00.528Z,21.45
2022-09-28T15:48:59.985Z,21.66
2022-09-28T15:52:00.059Z,21.86
2022-09-28T15:54:59.975Z,21.92
2022-09-28T15:57:00.537Z,21.89
2022-09-28T16:02:00.002Z,21.71
2022-09-28T16:04:00.002Z,21.61
2022-09-28T16:06:00.113Z,21.51
2022-09-28T16:08:00.685Z,21.45
2022-09-28T16:10:59.045Z,21.32
2022-09-28T16:13:00.011Z,21.24
2022-09-28T16:15:00.251Z,21.22
2022-09-28T16:17:00.709Z,21.18
2022-09-28T16:19:59.993Z,21.12
2022-09-28T16:22:59.051Z,21.06
2022-09-28T16:25:00.270Z,21
2022-09-28T16:28:01.798Z,20.93
2022-09-28T16:31:00.260Z,20.81
2022-09-28T16:33:00.399Z,20.74
2022-09-28T16:36:00.033Z,20.66
2022-09-28T16:39:00.046Z,20.59
2022-09-28T16:42:00.014Z,20.51
2022-09-28T16:44:00.004Z,20.48
2022-09-28T16:47:00.085Z,20.42
2022-09-28T16:49:00.495Z,20.37
2022-09-28T16:52:00.114Z,20.29
2022-09-28T16:54:00.740Z,20.26
2022-09-28T16:57:00.024Z,20.19
2022-09-28T16:59:00.621Z,20.12
2022-09-28T17:02:00.090Z,20.07
2022-09-28T17:04:00.167Z,20.02
2022-09-28T17:07:00.215Z,19.98
2022-09-28T17:09:00.809Z,19.95
2022-09-28T17:11:59.997Z,19.87
2022-09-28T17:14:59.971Z,19.84
2022-09-28T17:18:00.133Z,19.73
2022-09-28T17:21:00.290Z,19.66
2022-09-28T17:24:00.002Z,19.58
2022-09-28T17:27:01.396Z,19.54
2022-09-28T17:29:59.994Z,19.51
2022-09-28T17:32:00.018Z,19.48
2022-09-28T17:35:19.717Z,19.46
2022-09-28T17:37:00.834Z,19.37
2022-09-28T17:39:59.994Z,19.27
2022-09-28T17:43:00.809Z,19.23
2022-09-28T17:46:00.646Z,19.18
2022-09-28T17:48:59.991Z,19.15
2022-09-28T17:51:00.207Z,19.11
2022-09-28T17:54:00.020Z,19.04
2022-09-28T17:57:00.011Z,19.04
2022-09-28T18:00:00.747Z,18.98
2022-09-28T18:03:00.350Z,18.92
2022-09-28T18:06:00.064Z,18.9
2022-09-28T18:08:00.810Z,18.89
2022-09-28T18:11:00.043Z,18.94
2022-09-28T18:14:00.011Z,18.98
2022-09-28T18:16:00.592Z,18.98
2022-09-28T18:19:00.614Z,18.93
2022-09-28T18:22:00.055Z,18.95
2022-09-28T18:24:00.805Z,18.86
2022-09-28T18:26:00.838Z,18.77
2022-09-28T18:29:00.667Z,18.79
2022-09-28T18:32:00.539Z,18.79
2022-09-28T18:35:00.000Z,18.7
2022-09-28T18:37:00.239Z,18.64
2022-09-28T18:39:00.620Z,18.56
2022-09-28T18:41:00.666Z,18.49
2022-09-28T18:43:59.994Z,18.44
2022-09-28T18:47:00.129Z,18.4
2022-09-28T18:49:00.370Z,18.32
2022-09-28T18:51:00.779Z,18.28
2022-09-28T18:55:00.028Z,18.24
2022-09-28T18:57:00.608Z,18.23
2022-09-28T19:00:00.856Z,18.19
2022-09-28T19:03:00.318Z,18.15
2022-09-28T19:05:00.588Z,18.04
2022-09-28T19:08:00.187Z,17.98
2022-09-28T19:10:00.967Z,17.96
2022-09-28T19:13:00.187Z,18.03
2022-09-28T19:16:00.085Z,17.95
2022-09-28T19:20:00.022Z,17.98
2022-09-28T19:22:00.097Z,18.01
2022-09-28T19:24:00.503Z,18.03
2022-09-28T19:27:00.032Z,17.98
2022-09-28T19:29:00.024Z,17.99
2022-09-28T19:32:00.768Z,18.04
2022-09-28T19:35:01.065Z,18
2022-09-28T19:37:00.617Z,17.91
2022-09-28T19:40:00.016Z,17.79
2022-09-28T19:43:01.006Z,17.75
2022-09-28T19:46:00.059Z,17.76
2022-09-28T19:48:00.780Z,17.75
2022-09-28T19:51:00.029Z,17.73
2022-09-28T19:54:00.033Z,17.68
2022-09-28T19:56:00.860Z,17.74
2022-09-28T19:59:00.837Z,17.79
2022-09-28T20:02:00.203Z,17.79
2022-09-28T20:04:00.289Z,17.79
2022-09-28T20:07:00.048Z,17.77
2022-09-28T20:10:00.018Z,17.76
2022-09-28T20:12:00.095Z,17.73
2022-09-28T20:14:00.172Z,17.73
2022-09-28T20:17:00.106Z,17.64
2022-09-28T20:19:00.313Z,17.65
2022-09-28T20:22:00.037Z,17.62
2022-09-28T20:25:00.538Z,17.65
2022-09-28T20:28:00.039Z,17.59
2022-09-28T20:32:00.483Z,17.59
2022-09-28T20:35:00.033Z,17.57
2022-09-28T20:37:00.116Z,17.54
2022-09-28T20:41:00.505Z,17.44
2022-09-28T20:44:04.244Z,17.28
2022-09-28T20:46:00.096Z,17.17
2022-09-28T20:48:00.513Z,17.19
2022-09-28T20:51:00.009Z,17.26
2022-09-28T20:53:00.048Z,17.2
2022-09-28T20:55:00.103Z,17.16
2022-09-28T20:57:00.565Z,16.99
2022-09-28T21:00:00.017Z,16.7
2022-09-28T21:03:00.443Z,16.6
2022-09-28T21:06:00.024Z,16.59
2022-09-28T21:08:00.618Z,16.62
2022-09-28T21:11:00.040Z,16.6
2022-09-28T21:13:00.348Z,16.6
2022-09-28T21:15:59.122Z,16.58
2022-09-28T21:18:00.026Z,16.66
2022-09-28T21:20:00.595Z,16.7
2022-09-28T21:23:00.094Z,16.61
2022-09-28T21:26:00.281Z,16.7
2022-09-28T21:29:00.176Z,16.64
2022-09-28T21:32:00.042Z,16.49
2022-09-28T21:34:00.059Z,16.36
2022-09-28T21:37:00.839Z,16.36
2022-09-28T21:39:59.997Z,16.33
2022-09-28T21:42:00.694Z,16.21
2022-09-28T21:45:00.182Z,16.17
2022-09-28T21:47:00.468Z,16.2
2022-09-28T21:51:00.052Z,16.29
2022-09-28T21:53:00.138Z,16.33
2022-09-28T21:56:00.088Z,16.36
2022-09-28T21:59:00.184Z,16.41
2022-09-28T22:02:00.115Z,16.42
2022-09-28T22:04:00.056Z,16.42
2022-09-28T22:06:00.052Z,16.43
2022-09-28T22:09:00.082Z,16.45
2022-09-28T22:14:00.100Z,16.49
2022-09-28T22:16:00.477Z,16.39
2022-09-28T22:19:00.081Z,16.26
2022-09-28T22:21:00.942Z,16.27
2022-09-28T22:24:00.637Z,16.27
2022-09-28T22:28:00.036Z,16.17
2022-09-28T22:30:00.889Z,16.18
2022-09-28T22:33:00.241Z,16.01
2022-09-28T22:35:59.098Z,15.88
2022-09-28T22:38:00.650Z,15.85
2022-09-28T22:41:00.118Z,15.99
2022-09-28T22:43:00.175Z,15.95
2022-09-28T22:46:00.426Z,15.96
2022-09-28T22:49:00.901Z,15.9
2022-09-28T22:52:00.683Z,15.91
2022-09-28T22:55:00.079Z,15.82
2022-09-28T22:58:00.057Z,15.78
2022-09-28T23:00:00.320Z,15.83
2022-09-28T23:03:00.587Z,15.68
2022-09-28T23:05:00.582Z,15.68
2022-09-28T23:08:00.136Z,15.55
2022-09-28T23:11:00.069Z,15.58
2022-09-28T23:14:00.235Z,15.63
2022-09-28T23:17:00.031Z,15.71
2022-09-28T23:19:00.038Z,15.7
2022-09-28T23:22:00.093Z,15.71
2022-09-28T23:24:00.748Z,15.77
2022-09-28T23:27:00.045Z,15.76
2022-09-28T23:30:00.326Z,15.72
2022-09-28T23:33:00.929Z,15.68
2022-09-28T23:36:00.073Z,15.56
2022-09-28T23:38:00.282Z,15.45
2022-09-28T23:41:00.874Z,15.41
2022-09-28T23:44:00.050Z,15.46
2022-09-28T23:46:00.649Z,15.38
2022-09-28T23:49:00.043Z,15.29
2022-09-28T23:52:00.690Z,15.13
2022-09-28T23:55:00.810Z,15.19
2022-09-28T23:58:00.042Z,15.18
